Patos — WDF6110 — position and weather

sailwx.info

Track history (hours):
 
Tides and Currents Weather Stations Pressure Air Temp Water Temp Dewpoint Dewpoint Depression Visibility Wind Speed Wind Dir Waves Ship Positions

Patos

Owner: Demelza Charters LLP, Bellingham, WA. More information available from US FCC via Universal Licensing System and Coast Guard Vessel Documentation Center.

Last reported at 2017-May-31 15:18 UTC. Time now 2017-Jul-24 08:41 UTC.
Position N 51°53' W 128°16'.
Warning: this ship's position is 53 days out of date.

Length 16 m.

Type: Pleasure craft. MMSI: 367470750.

Date/timePositionNaut miles runAvg speedWind from/ knotsBaromVisibWave heightAir tempDewpointWater temp
2017-May-31 15:18N 51°53' W 128°16'2 7.6
2017-May-31 15:00N 51°51' W 128°14'1 1.6
2017-May-31 14:10N 51°50' W 128°13'0 0.0
2017-May-31 13:28N 51°50' W 128°13'0 0.0
2017-May-31 12:52N 51°50' W 128°13'0 0.0
2017-May-31 12:28N 51°50' W 128°13'0 0.0
2017-May-31 11:10N 51°50' W 128°13'0 0.0
2017-May-31 10:58N 51°50' W 128°13'0 0.0
2017-May-31 10:28N 51°50' W 128°13'0 0.0
2017-May-31 09:40N 51°50' W 128°13'0 0.0
2017-May-31 09:28N 51°50' W 128°13'0 0.0
2017-May-31 08:58N 51°50' W 128°13'0 0.0
2017-May-31 08:22N 51°50' W 128°13'0 0.0
2017-May-31 07:58N 51°50' W 128°13'0 0.0
2017-May-31 07:28N 51°50' W 128°13'0 0.0
2017-May-31 06:58N 51°50' W 128°13'0 0.0
2017-May-31 06:22N 51°50' W 128°13'0 0.0
2017-May-31 05:58N 51°50' W 128°13'0 0.0
2017-May-31 05:16N 51°50' W 128°13'0 0.0
2017-May-31 04:58N 51°50' W 128°13'0 0.0
2017-May-31 04:28N 51°50' W 128°13'0 0.0
2017-May-31 03:58N 51°50' W 128°13'0 0.0
2017-May-31 03:28N 51°50' W 128°13'0 0.0
2017-May-31 02:46N 51°50' W 128°13'0 0.0
2017-May-31 02:10N 51°50' W 128°13'0 0.0
2017-May-31 01:52N 51°50' W 128°13'0 0.0
2017-May-31 01:22N 51°50' W 128°13'0 0.0
2017-May-30 23:22N 51°50' W 128°13'3 0.7
2017-May-30 19:19N 51°48' W 128°09'3 8.0
2017-May-30 19:00N 51°46' W 128°09'4 7.2
2017-May-30 18:30N 51°43' W 128°06'3 7.0
2017-May-30 18:00N 51°39' W 128°04'4 8.4
2017-May-30 17:30N 51°39' W 127°57'4 8.6
2017-May-30 17:00N 51°38' W 127°51'3 4.8
2017-May-30 16:20N 51°39' W 127°46'2 5.8
2017-May-30 15:58N 51°37' W 127°45'2 4.0
2017-May-30 15:28N 51°36' W 127°48'4 8.0
2017-May-30 14:59N 51°32' W 127°48'4 7.8
2017-May-30 14:30N 51°29' W 127°46'1 0.0
2017-May-29 19:22N 51°29' W 127°45'23 6.9
2017-May-29 16:01N 51°06' W 127°43'3 9.9
2017-May-29 15:42N 51°03' W 127°40'310.5
2017-May-29 15:24N 51°01' W 127°38'410.0
2017-May-29 15:00N 50°57' W 127°34'  
Track history (hours):
 
Tides and Currents Weather Stations Pressure Air Temp Water Temp Dewpoint Dewpoint Depression Visibility Wind Speed Wind Dir Waves Ship Positions

Patos

Owner: Demelza Charters LLP, Bellingham, WA. More information available from US FCC via Universal Licensing System and Coast Guard Vessel Documentation Center.

Last reported at 2017-May-31 15:18 UTC. Time now 2017-Jul-24 08:41 UTC.
Position N 51°53' W 128°16'.
Warning: this ship's position is 53 days out of date.

Length 16 m.

Type: Pleasure craft. MMSI: 367470750.

Date/timePositionNaut miles runAvg speedWind from/ knotsBaromVisibWave heightAir tempDewpointWater temp
2017-May-31 15:18N 51°53' W 128°16'2 7.6
2017-May-31 15:00N 51°51' W 128°14'1 1.6
2017-May-31 14:10N 51°50' W 128°13'0 0.0
2017-May-31 13:28N 51°50' W 128°13'0 0.0
2017-May-31 12:52N 51°50' W 128°13'0 0.0
2017-May-31 12:28N 51°50' W 128°13'0 0.0
2017-May-31 11:10N 51°50' W 128°13'0 0.0
2017-May-31 10:58N 51°50' W 128°13'0 0.0
2017-May-31 10:28N 51°50' W 128°13'0 0.0
2017-May-31 09:40N 51°50' W 128°13'0 0.0
2017-May-31 09:28N 51°50' W 128°13'0 0.0
2017-May-31 08:58N 51°50' W 128°13'0 0.0
2017-May-31 08:22N 51°50' W 128°13'0 0.0
2017-May-31 07:58N 51°50' W 128°13'0 0.0
2017-May-31 07:28N 51°50' W 128°13'0 0.0
2017-May-31 06:58N 51°50' W 128°13'0 0.0
2017-May-31 06:22N 51°50' W 128°13'0 0.0
2017-May-31 05:58N 51°50' W 128°13'0 0.0
2017-May-31 05:16N 51°50' W 128°13'0 0.0
2017-May-31 04:58N 51°50' W 128°13'0 0.0
2017-May-31 04:28N 51°50' W 128°13'0 0.0
2017-May-31 03:58N 51°50' W 128°13'0 0.0
2017-May-31 03:28N 51°50' W 128°13'0 0.0
2017-May-31 02:46N 51°50' W 128°13'0 0.0
2017-May-31 02:10N 51°50' W 128°13'0 0.0
2017-May-31 01:52N 51°50' W 128°13'0 0.0
2017-May-31 01:22N 51°50' W 128°13'0 0.0
2017-May-30 23:22N 51°50' W 128°13'3 0.7
2017-May-30 19:19N 51°48' W 128°09'3 8.0
2017-May-30 19:00N 51°46' W 128°09'4 7.2
2017-May-30 18:30N 51°43' W 128°06'3 7.0
2017-May-30 18:00N 51°39' W 128°04'4 8.4
2017-May-30 17:30N 51°39' W 127°57'4 8.6
2017-May-30 17:00N 51°38' W 127°51'3 4.8
2017-May-30 16:20N 51°39' W 127°46'2 5.8
2017-May-30 15:58N 51°37' W 127°45'2 4.0
2017-May-30 15:28N 51°36' W 127°48'4 8.0
2017-May-30 14:59N 51°32' W 127°48'4 7.8
2017-May-30 14:30N 51°29' W 127°46'1 0.0
2017-May-29 19:22N 51°29' W 127°45'23 6.9
2017-May-29 16:01N 51°06' W 127°43'3 9.9
2017-May-29 15:42N 51°03' W 127°40'310.5
2017-May-29 15:24N 51°01' W 127°38'410.0
2017-May-29 15:00N 50°57' W 127°34'  

Dump ship's entire track history